sim
Sign-in with your pilot id or email,
or register
Callsign
Passwort

Schedule Details

Flight Number: OEO8633
Departure: Luxembourg Findel Airport (ELLX) at 10:00
Arrival: Munich Airport (EDDM) at 11:15

Weather Information
Getting current METAR information for ELLX 231550Z AUTO 25009KT 9999 SCT042/// BKN050/// OVC083/// 21/11 Q1006 TEMPO 23015G25KT SHRA SCT025CB
Getting current METAR information for EDDM 231550Z 27006KT 9999 FEW040 19/14 Q1009 NOSIG

Schedule Frequency

Route Map